createdAt,value
2023-11-12T00:02:44.458Z,0.85
2023-11-12T00:05:46.988Z,0.90
2023-11-12T00:08:49.848Z,0.40
2023-11-12T00:11:52.767Z,0.70
2023-11-12T00:14:55.487Z,0.47
2023-11-12T00:17:58.156Z,0.88
2023-11-12T00:21:00.691Z,0.70
2023-11-12T00:24:04.230Z,0.67
2023-11-12T00:27:06.759Z,0.38
2023-11-12T00:30:10.452Z,0.30
2023-11-12T00:33:13.126Z,0.60
2023-11-12T00:36:15.769Z,0.90
2023-11-12T00:39:18.378Z,0.87
2023-11-12T00:42:20.908Z,0.65
2023-11-12T00:45:23.992Z,0.50
2023-11-12T00:48:27.681Z,0.47
2023-11-12T00:51:30.457Z,0.60
2023-11-12T00:54:33.845Z,0.30
2023-11-12T00:57:36.372Z,0.30
2023-11-12T01:00:42.624Z,0.70
2023-11-12T01:03:45.670Z,0.68
2023-11-12T01:06:48.209Z,0.10
2023-11-12T01:09:51.485Z,0.53
2023-11-12T01:12:54.023Z,0.35
2023-11-12T01:15:57.352Z,0.60
2023-11-12T01:19:00.306Z,0.52
2023-11-12T01:22:03.000Z,0.50
2023-11-12T01:25:06.266Z,0.67
2023-11-12T01:28:08.846Z,0.60
2023-11-12T01:31:12.136Z,0.60
2023-11-12T01:34:15.570Z,0.30
2023-11-12T01:37:18.522Z,0.63
2023-11-12T01:40:21.668Z,0.50
2023-11-12T01:43:24.181Z,0.73
2023-11-12T01:46:30.926Z,0.55
2023-11-12T01:49:36.393Z,0.60
2023-11-12T01:52:40.251Z,0.87
2023-11-12T01:55:45.484Z,0.47
2023-11-12T01:58:53.653Z,0.80
2023-11-12T02:01:56.200Z,0.43
2023-11-12T02:04:59.436Z,0.88
2023-11-12T02:08:04.571Z,0.50
2023-11-12T02:11:10.317Z,0.50
2023-11-12T02:14:13.146Z,0.70
2023-11-12T02:17:15.713Z,0.95
2023-11-12T02:20:18.384Z,0.60
2023-11-12T02:23:21.156Z,0.67
2023-11-12T02:26:23.687Z,0.63
2023-11-12T02:29:26.315Z,0.90
2023-11-12T02:32:33.868Z,0.43
2023-11-12T02:35:38.202Z,0.80
2023-11-12T02:38:41.860Z,1.03
2023-11-12T02:41:46.037Z,0.70
2023-11-12T02:44:49.674Z,0.68
2023-11-12T02:47:52.268Z,0.55
2023-11-12T02:50:55.671Z,0.50
2023-11-12T02:53:58.230Z,0.60
2023-11-12T02:57:00.770Z,0.20
2023-11-12T03:00:03.573Z,0.63
2023-11-12T03:03:06.201Z,0.70
2023-11-12T03:06:08.899Z,0.35
2023-11-12T03:09:11.467Z,0.97
2023-11-12T03:12:14.071Z,0.90
2023-11-12T03:15:18.067Z,0.63
2023-11-12T03:18:20.801Z,0.82
2023-11-12T03:21:24.180Z,0.90
2023-11-12T03:24:26.732Z,0.57
2023-11-12T03:27:31.149Z,0.60
2023-11-12T03:30:33.660Z,0.82
2023-11-12T03:33:36.518Z,0.70
2023-11-12T03:36:39.211Z,0.75
2023-11-12T03:39:42.022Z,0.90
2023-11-12T03:42:45.054Z,0.50
2023-11-12T03:45:47.733Z,0.60
2023-11-12T03:48:50.224Z,0.50
2023-11-12T03:51:53.401Z,0.88
2023-11-12T03:54:55.964Z,0.80
2023-11-12T03:57:58.570Z,0.87
2023-11-12T04:01:01.297Z,0.40
2023-11-12T04:04:04.294Z,0.82
2023-11-12T04:07:06.945Z,0.40
2023-11-12T04:10:12.720Z,0.77
2023-11-12T04:13:15.373Z,0.63
2023-11-12T04:16:17.989Z,0.22
2023-11-12T04:19:20.585Z,0.50
2023-11-12T04:22:24.536Z,0.93
2023-11-12T04:25:27.076Z,0.73
2023-11-12T04:28:30.238Z,0.47
2023-11-12T04:31:33.104Z,0.70
2023-11-12T04:34:35.670Z,0.55
2023-11-12T04:37:39.332Z,0.40
2023-11-12T04:40:41.835Z,0.50
2023-11-12T04:43:45.055Z,1.00
2023-11-12T04:46:49.217Z,0.88
2023-11-12T04:49:53.213Z,1.10
2023-11-12T04:52:55.682Z,1.35
2023-11-12T04:55:58.200Z,0.50
2023-11-12T04:59:00.844Z,0.60
2023-11-12T05:02:03.987Z,1.02
2023-11-12T05:05:08.224Z,0.82
2023-11-12T05:08:10.721Z,0.80
2023-11-12T05:11:13.250Z,0.23
2023-11-12T05:14:15.746Z,0.90
2023-11-12T05:17:18.261Z,0.22
2023-11-12T05:20:20.843Z,0.98
2023-11-12T05:23:23.321Z,0.93
2023-11-12T05:26:25.889Z,0.70
2023-11-12T05:29:28.359Z,0.70
2023-11-12T05:32:30.961Z,1.00
2023-11-12T05:35:33.508Z,0.45
2023-11-12T05:38:35.995Z,0.68
2023-11-12T05:41:38.469Z,0.77
2023-11-12T05:44:41.032Z,0.80
2023-11-12T05:47:43.553Z,1.08
2023-11-12T05:50:46.501Z,0.73
2023-11-12T05:53:49.266Z,0.52
2023-11-12T05:56:51.783Z,0.80
2023-11-12T05:59:54.353Z,1.17
2023-11-12T06:02:57.310Z,0.93
2023-11-12T06:05:59.874Z,0.88
2023-11-12T06:09:02.433Z,1.00
2023-11-12T06:12:06.748Z,1.30
2023-11-12T06:15:10.983Z,1.27
2023-11-12T06:18:13.889Z,0.70
2023-11-12T06:21:16.697Z,0.77
2023-11-12T06:24:19.324Z,0.90
2023-11-12T06:27:22.002Z,1.30
2023-11-12T06:30:24.578Z,0.70
2023-11-12T06:33:27.298Z,0.70
2023-11-12T06:36:29.919Z,1.50
2023-11-12T06:39:32.547Z,1.45
2023-11-12T06:42:35.241Z,5.20
2023-11-12T06:45:37.862Z,3.73
2023-11-12T06:48:41.053Z,1.75
2023-11-12T06:51:43.808Z,0.40
2023-11-12T06:54:46.411Z,0.90
2023-11-12T06:57:48.985Z,1.20
2023-11-12T07:00:52.207Z,0.83
2023-11-12T07:03:55.108Z,1.10
2023-11-12T07:07:06.419Z,0.65
2023-11-12T07:10:16.375Z,1.77
2023-11-12T07:13:18.834Z,1.10
2023-11-12T07:16:21.791Z,1.13
2023-11-12T07:19:25.930Z,1.30
2023-11-12T07:22:29.453Z,1.00
2023-11-12T07:25:31.988Z,1.30
2023-11-12T07:28:34.557Z,0.60
2023-11-12T07:31:37.131Z,1.30
2023-11-12T07:34:39.678Z,0.93
2023-11-12T07:37:42.406Z,0.80
2023-11-12T07:40:44.965Z,0.60
2023-11-12T07:43:47.435Z,1.70
2023-11-12T07:46:50.924Z,1.23
2023-11-12T07:49:54.070Z,1.67
2023-11-12T07:52:56.630Z,1.17
2023-11-12T07:55:59.108Z,1.30
2023-11-12T07:59:01.627Z,1.27
2023-11-12T08:02:04.267Z,1.13
2023-11-12T08:05:09.506Z,1.17
2023-11-12T08:08:12.172Z,1.40
2023-11-12T08:11:14.788Z,1.00
2023-11-12T08:14:17.285Z,1.67
2023-11-12T08:17:19.877Z,1.37
2023-11-12T08:20:22.344Z,1.20
2023-11-12T08:23:24.820Z,1.38
2023-11-12T08:26:30.827Z,1.80
2023-11-12T08:29:33.635Z,1.33
2023-11-12T08:32:36.695Z,1.50
2023-11-12T08:35:40.328Z,3.50
2023-11-12T08:38:42.893Z,1.85
2023-11-12T08:41:48.359Z,1.85
2023-11-12T08:44:51.242Z,1.90
2023-11-12T08:47:53.754Z,1.10
2023-11-12T08:50:56.312Z,1.40
2023-11-12T08:53:58.957Z,2.20
2023-11-12T08:57:04.391Z,0.95
2023-11-12T09:00:08.525Z,1.57
2023-11-12T09:03:11.216Z,0.87
2023-11-12T09:06:13.772Z,1.30
2023-11-12T09:09:18.791Z,1.83
2023-11-12T09:12:21.395Z,1.40
2023-11-12T09:15:23.914Z,1.00
2023-11-12T09:18:28.704Z,2.10
2023-11-12T09:21:32.276Z,1.50
2023-11-12T09:24:34.805Z,1.40
2023-11-12T09:27:37.404Z,1.25
2023-11-12T09:30:49.239Z,0.47
2023-11-12T09:33:59.893Z,0.77
2023-11-12T09:37:03.563Z,1.50
2023-11-12T09:40:11.754Z,1.45
2023-11-12T09:43:15.452Z,1.60
2023-11-12T09:46:20.674Z,1.33
2023-11-12T09:49:23.828Z,1.80
2023-11-12T09:52:26.845Z,1.23
2023-11-12T09:55:29.326Z,1.50
2023-11-12T09:58:31.812Z,1.05
2023-11-12T10:01:35.619Z,1.53
2023-11-12T10:04:43.315Z,1.10
2023-11-12T10:07:47.171Z,1.27
2023-11-12T10:10:49.764Z,0.98
2023-11-12T10:13:52.903Z,1.10
2023-11-12T10:17:08.881Z,1.23
2023-11-12T10:20:20.531Z,0.73
2023-11-12T10:23:32.619Z,1.05
2023-11-12T10:26:36.936Z,0.68
2023-11-12T10:29:40.788Z,0.73
2023-11-12T10:32:43.358Z,1.20
2023-11-12T10:35:47.760Z,0.90
2023-11-12T10:38:51.078Z,1.08
2023-11-12T10:41:53.692Z,0.60
2023-11-12T10:44:58.318Z,0.65
2023-11-12T10:48:05.427Z,0.80
2023-11-12T10:51:09.249Z,1.07
2023-11-12T10:54:15.134Z,0.50
2023-11-12T10:57:24.744Z,0.75
2023-11-12T11:00:27.871Z,0.55
2023-11-12T11:03:32.606Z,0.83
2023-11-12T11:06:37.278Z,1.20
2023-11-12T11:09:40.094Z,0.85
2023-11-12T11:12:44.009Z,0.82
2023-11-12T11:15:57.180Z,1.08
2023-11-12T11:19:00.669Z,0.50
2023-11-12T11:22:32.886Z,1.00
2023-11-12T11:25:35.770Z,1.48
2023-11-12T11:28:38.236Z,0.70
2023-11-12T11:32:09.833Z,0.68
2023-11-12T11:35:19.222Z,1.10
2023-11-12T11:38:25.356Z,0.40
2023-11-12T11:41:27.854Z,0.98
2023-11-12T11:44:35.455Z,0.88
2023-11-12T11:47:38.076Z,0.35
2023-11-12T11:50:46.827Z,0.70
2023-11-12T11:53:50.164Z,0.30
2023-11-12T11:56:53.728Z,0.43
2023-11-12T11:59:57.639Z,0.75
2023-11-12T12:03:02.503Z,0.32
2023-11-12T12:06:24.682Z,0.67
2023-11-12T12:09:27.956Z,0.40
2023-11-12T12:12:31.238Z,0.77
2023-11-12T12:15:34.597Z,0.45
2023-11-12T12:18:37.422Z,0.40
2023-11-12T12:21:48.305Z,0.73
2023-11-12T12:24:54.498Z,1.20
2023-11-12T12:27:57.106Z,0.75
2023-11-12T12:30:59.769Z,0.73
2023-11-12T12:34:10.930Z,1.00
2023-11-12T12:37:20.756Z,0.63
2023-11-12T12:40:29.699Z,0.40
2023-11-12T12:43:51.937Z,0.65
2023-11-12T12:46:54.491Z,0.60
2023-11-12T12:49:59.634Z,0.65
2023-11-12T12:53:16.569Z,0.83
2023-11-12T12:56:20.308Z,0.70
2023-11-12T12:59:22.944Z,0.73
2023-11-12T13:02:25.616Z,0.73
2023-11-12T13:05:28.139Z,0.75
2023-11-12T13:08:30.695Z,0.73
2023-11-12T13:11:33.144Z,0.87
2023-11-12T13:14:35.676Z,0.57
2023-11-12T13:17:39.369Z,0.77
2023-11-12T13:20:43.702Z,0.65
2023-11-12T13:23:46.208Z,0.90
2023-11-12T13:26:49.296Z,0.77
2023-11-12T13:29:52.211Z,1.50
2023-11-12T13:32:55.993Z,0.95
2023-11-12T13:36:01.276Z,0.65
2023-11-12T13:39:10.892Z,1.07
2023-11-12T13:42:13.461Z,0.50
2023-11-12T13:45:19.310Z,1.08
2023-11-12T13:48:21.981Z,0.90
2023-11-12T13:51:25.640Z,1.00
2023-11-12T13:54:28.244Z,0.60
2023-11-12T13:57:33.511Z,0.70
2023-11-12T14:00:37.128Z,0.75
2023-11-12T14:03:41.943Z,1.02
2023-11-12T14:06:48.424Z,0.90
2023-11-12T14:09:51.052Z,1.00
2023-11-12T14:12:54.447Z,1.10
2023-11-12T14:15:59.209Z,0.88
2023-11-12T14:19:01.922Z,0.88
2023-11-12T14:22:05.604Z,0.70
2023-11-12T14:25:12.265Z,0.80
2023-11-12T14:28:14.877Z,1.23
2023-11-12T14:31:21.594Z,1.00
2023-11-12T14:34:24.712Z,0.95
2023-11-12T14:37:27.427Z,1.17
2023-11-12T14:40:30.036Z,0.70
2023-11-12T14:43:38.508Z,0.80
2023-11-12T14:46:41.539Z,1.20
2023-11-12T14:49:47.256Z,0.90
2023-11-12T14:52:52.080Z,1.10
2023-11-12T14:55:55.343Z,1.77
2023-11-12T14:58:58.336Z,1.50
2023-11-12T15:02:00.989Z,1.20
2023-11-12T15:05:07.009Z,2.00
2023-11-12T15:08:10.686Z,1.70
2023-11-12T15:11:13.890Z,1.63
2023-11-12T15:14:16.579Z,1.57
2023-11-12T15:17:22.013Z,2.08
2023-11-12T15:20:24.757Z,1.33
2023-11-12T15:23:29.333Z,1.80
2023-11-12T15:26:32.995Z,1.93
2023-11-12T15:29:35.797Z,1.83
2023-11-12T15:32:38.459Z,2.03
2023-11-12T15:35:41.093Z,3.30
2023-11-12T15:38:43.730Z,3.38
2023-11-12T15:41:46.282Z,4.03
2023-11-12T15:44:50.654Z,3.93
2023-11-12T15:47:53.890Z,5.03
2023-11-12T15:50:56.810Z,4.43
2023-11-12T15:54:01.285Z,4.97
2023-11-12T15:57:04.509Z,6.27
2023-11-12T16:00:09.545Z,6.20
2023-11-12T16:03:18.610Z,7.15
2023-11-12T16:06:21.869Z,7.65
2023-11-12T16:09:24.444Z,9.48
2023-11-12T16:12:27.829Z,9.97
2023-11-12T16:15:31.215Z,10.07
2023-11-12T16:18:33.943Z,10.30
2023-11-12T16:21:36.773Z,15.50
2023-11-12T16:24:42.249Z,16.17
2023-11-12T16:27:45.061Z,14.97
2023-11-12T16:30:49.287Z,16.87
2023-11-12T16:33:53.775Z,19.25
2023-11-12T16:36:56.424Z,19.42
2023-11-12T16:40:00.777Z,25.83
2023-11-12T16:43:04.360Z,21.27
2023-11-12T16:46:07.006Z,24.07
2023-11-12T16:49:09.904Z,23.30
2023-11-12T16:52:12.465Z,21.20
2023-11-12T16:55:15.498Z,22.85
2023-11-12T16:58:17.995Z,23.13
2023-11-12T17:01:20.929Z,26.07
2023-11-12T17:04:25.088Z,25.42
2023-11-12T17:07:29.251Z,26.30
2023-11-12T17:10:32.003Z,23.15
2023-11-12T17:13:35.316Z,23.87
2023-11-12T17:16:44.059Z,23.57
2023-11-12T17:19:46.939Z,25.48
2023-11-12T17:22:50.378Z,27.38
2023-11-12T17:25:54.078Z,24.48
2023-11-12T17:29:00.490Z,28.53
2023-11-12T17:32:03.537Z,24.07
2023-11-12T17:35:06.599Z,28.60
2023-11-12T17:38:09.172Z,23.17
2023-11-12T17:41:11.660Z,25.02
2023-11-12T17:44:15.706Z,23.93
2023-11-12T17:47:18.504Z,24.63
2023-11-12T17:50:21.299Z,23.20
2023-11-12T17:53:25.312Z,22.15
2023-11-12T17:56:28.615Z,23.00
2023-11-12T17:59:31.603Z,23.40
2023-11-12T18:02:34.400Z,23.67
2023-11-12T18:05:37.538Z,26.42
2023-11-12T18:08:40.000Z,23.13
2023-11-12T18:11:46.257Z,20.00
2023-11-12T18:14:49.735Z,20.90
2023-11-12T18:17:52.678Z,20.75
2023-11-12T18:20:55.720Z,21.27
2023-11-12T18:23:58.395Z,20.77
2023-11-12T18:27:01.013Z,18.23
2023-11-12T18:30:06.724Z,18.23
2023-11-12T18:33:15.299Z,17.73
2023-11-12T18:36:18.201Z,18.40
2023-11-12T18:39:20.737Z,20.57
2023-11-12T18:42:25.125Z,20.45
2023-11-12T18:45:30.285Z,40.53
2023-11-12T18:48:34.229Z,46.83
2023-11-12T18:51:37.002Z,40.43
2023-11-12T18:54:39.571Z,28.98
2023-11-12T18:57:43.612Z,26.88
2023-11-12T19:00:46.352Z,26.85
2023-11-12T19:03:49.401Z,31.97
2023-11-12T19:06:52.027Z,42.75
2023-11-12T19:09:55.317Z,37.78
2023-11-12T19:12:58.006Z,39.30
2023-11-12T19:16:00.966Z,30.73
2023-11-12T19:19:04.520Z,32.28
2023-11-12T19:22:07.353Z,30.83
2023-11-12T19:25:16.198Z,30.05
2023-11-12T19:28:19.203Z,25.33
2023-11-12T19:31:30.606Z,27.73
2023-11-12T19:34:36.429Z,28.17
2023-11-12T19:37:39.981Z,33.10
2023-11-12T19:40:44.879Z,33.22
2023-11-12T19:43:48.618Z,36.33
2023-11-12T19:46:51.928Z,34.67
2023-11-12T19:49:54.686Z,45.50
2023-11-12T19:52:57.909Z,47.63
2023-11-12T19:56:00.790Z,39.80
2023-11-12T19:59:03.519Z,41.08
2023-11-12T20:02:07.648Z,41.90
2023-11-12T20:05:10.481Z,39.17
2023-11-12T20:08:13.288Z,41.15
2023-11-12T20:11:17.506Z,38.57
2023-11-12T20:14:22.621Z,35.53
2023-11-12T20:17:25.146Z,36.00
2023-11-12T20:20:27.686Z,33.30
2023-11-12T20:23:30.878Z,36.07
2023-11-12T20:26:34.765Z,36.28
2023-11-12T20:29:37.448Z,35.15
2023-11-12T20:32:42.831Z,33.85
2023-11-12T20:35:48.403Z,35.63
2023-11-12T20:38:52.427Z,33.33
2023-11-12T20:41:57.659Z,33.72
2023-11-12T20:45:01.743Z,34.50
2023-11-12T20:48:04.953Z,33.67
2023-11-12T20:51:09.415Z,35.10
2023-11-12T20:54:17.184Z,35.13
2023-11-12T20:57:19.908Z,37.70
2023-11-12T21:00:22.941Z,33.25
2023-11-12T21:03:26.035Z,35.33
2023-11-12T21:06:29.629Z,33.63
2023-11-12T21:09:33.507Z,36.07
2023-11-12T21:12:36.958Z,34.20
2023-11-12T21:15:41.689Z,32.03
2023-11-12T21:18:44.902Z,29.83
2023-11-12T21:21:50.341Z,30.20
2023-11-12T21:24:54.053Z,33.00
2023-11-12T21:27:56.584Z,33.85
2023-11-12T21:30:59.562Z,32.57
2023-11-12T21:34:02.321Z,31.23
2023-11-12T21:37:06.904Z,36.38
2023-11-12T21:40:09.967Z,34.95
2023-11-12T21:43:12.812Z,33.97
2023-11-12T21:46:17.067Z,33.92
2023-11-12T21:49:19.806Z,37.53
2023-11-12T21:52:24.198Z,39.58
2023-11-12T21:55:26.777Z,36.57
2023-11-12T21:58:29.522Z,35.50
2023-11-12T22:01:32.075Z,35.22
2023-11-12T22:04:34.612Z,33.22
2023-11-12T22:07:37.298Z,45.67
2023-11-12T22:10:39.896Z,41.85
2023-11-12T22:13:43.358Z,33.17
2023-11-12T22:16:46.286Z,37.15
2023-11-12T22:19:51.506Z,33.47
2023-11-12T22:22:56.806Z,28.33
2023-11-12T22:25:59.373Z,32.22
2023-11-12T22:29:01.992Z,32.15
2023-11-12T22:32:10.460Z,33.30
2023-11-12T22:35:13.049Z,28.98
2023-11-12T22:38:15.647Z,30.38
2023-11-12T22:41:19.429Z,33.23
2023-11-12T22:44:22.039Z,29.47
2023-11-12T22:47:26.248Z,29.55
2023-11-12T22:50:28.977Z,30.05
2023-11-12T22:53:31.519Z,30.67
2023-11-12T22:56:34.022Z,29.43
2023-11-12T22:59:36.855Z,26.88
2023-11-12T23:02:39.463Z,28.65
2023-11-12T23:05:43.393Z,28.98
2023-11-12T23:08:47.378Z,24.77
2023-11-12T23:11:49.858Z,26.75
2023-11-12T23:14:52.691Z,29.63
2023-11-12T23:17:55.253Z,28.55
2023-11-12T23:21:03.487Z,28.27
2023-11-12T23:24:11.818Z,26.75
2023-11-12T23:27:14.372Z,28.70
2023-11-12T23:30:17.258Z,26.58
2023-11-12T23:33:20.750Z,26.60
2023-11-12T23:36:23.316Z,26.25
2023-11-12T23:39:25.794Z,28.40
2023-11-12T23:42:28.598Z,26.88
2023-11-12T23:45:31.205Z,26.37
2023-11-12T23:48:35.149Z,23.60
2023-11-12T23:51:39.745Z,24.35
2023-11-12T23:54:43.396Z,21.90
2023-11-12T23:57:47.231Z,21.92
